createdAt,value
2022-11-19T00:01:17.032Z,2.10
2022-11-19T00:12:10.830Z,2.63
2022-11-19T00:14:48.603Z,1.70
2022-11-19T00:17:18.152Z,1.67
2022-11-19T00:19:48.276Z,1.58
2022-11-19T00:22:17.402Z,1.52
2022-11-19T00:25:02.810Z,1.67
2022-11-19T00:27:33.750Z,1.55
2022-11-19T00:30:19.978Z,1.80
2022-11-19T00:32:59.933Z,1.63
2022-11-19T00:35:29.608Z,1.83
2022-11-19T00:37:59.058Z,1.75
2022-11-19T00:40:28.719Z,1.95
2022-11-19T00:43:18.006Z,1.55
2022-11-19T00:45:51.734Z,2.25
2022-11-19T00:48:26.989Z,1.55
2022-11-19T00:50:56.611Z,1.67
2022-11-19T00:53:26.324Z,1.25
2022-11-19T00:55:55.865Z,1.42
2022-11-19T00:58:25.957Z,1.83
2022-11-19T01:00:57.768Z,3.45
2022-11-19T01:03:33.648Z,1.27
2022-11-19T01:06:05.917Z,2.80
2022-11-19T01:22:04.489Z,1.30
2022-11-19T01:24:34.631Z,1.75
2022-11-19T01:27:09.015Z,1.80
2022-11-19T01:29:38.204Z,1.55
2022-11-19T01:32:13.787Z,1.20
2022-11-19T01:34:45.085Z,1.40
2022-11-19T01:37:17.163Z,1.65
2022-11-19T01:39:53.449Z,1.10
2022-11-19T01:42:48.851Z,1.60
2022-11-19T01:45:36.245Z,1.30
2022-11-19T01:48:14.887Z,1.30
2022-11-19T01:50:48.438Z,1.58
2022-11-19T01:53:42.329Z,1.38
2022-11-19T01:56:12.386Z,1.40
2022-11-19T01:58:46.237Z,1.38
2022-11-19T02:01:15.808Z,1.27
2022-11-19T02:03:51.993Z,1.50
2022-11-19T02:06:24.543Z,1.90
2022-11-19T02:08:54.478Z,1.63
2022-11-19T02:11:40.085Z,2.00
2022-11-19T02:14:32.496Z,1.58
2022-11-19T02:17:11.653Z,1.50
2022-11-19T02:20:02.809Z,1.85
2022-11-19T02:22:43.575Z,1.87
2022-11-19T02:25:20.608Z,1.30
2022-11-19T02:28:04.794Z,2.05
2022-11-19T02:30:38.288Z,1.45
2022-11-19T02:33:09.767Z,1.33
2022-11-19T02:36:04.995Z,1.88
2022-11-19T02:38:39.956Z,1.55
2022-11-19T02:41:29.294Z,2.03
2022-11-19T02:44:25.217Z,1.45
2022-11-19T02:47:02.450Z,1.42
2022-11-19T02:49:33.914Z,1.15
2022-11-19T02:52:03.511Z,1.27
2022-11-19T02:54:34.999Z,1.73
2022-11-19T02:57:04.718Z,2.72
2022-11-19T02:59:58.690Z,1.00
2022-11-19T03:02:49.619Z,1.77
2022-11-19T03:05:21.809Z,1.40
2022-11-19T03:07:55.202Z,1.08
2022-11-19T03:10:26.045Z,1.63
2022-11-19T03:13:02.697Z,1.60
2022-11-19T03:15:59.198Z,1.20
2022-11-19T03:18:36.927Z,1.40
2022-11-19T03:21:09.672Z,1.50
2022-11-19T03:23:42.856Z,2.00
2022-11-19T03:26:24.431Z,1.73
2022-11-19T03:28:58.774Z,1.50
2022-11-19T03:31:32.493Z,1.38
2022-11-19T03:36:35.447Z,1.63
2022-11-19T03:39:06.010Z,1.48
2022-11-19T03:41:35.865Z,1.20
2022-11-19T03:44:08.201Z,1.65
2022-11-19T03:46:39.676Z,1.63
2022-11-19T03:49:13.285Z,1.75
2022-11-19T03:51:46.520Z,2.28
2022-11-19T03:54:16.559Z,1.55
2022-11-19T03:56:46.410Z,3.03
2022-11-19T03:59:16.270Z,1.42
2022-11-19T04:01:46.910Z,3.47
2022-11-19T04:04:34.295Z,1.75
2022-11-19T04:07:05.409Z,1.33
2022-11-19T04:09:41.289Z,1.65
2022-11-19T04:12:16.590Z,1.63
2022-11-19T04:14:52.740Z,1.27
2022-11-19T04:17:25.046Z,1.90
2022-11-19T04:19:59.893Z,1.52
2022-11-19T04:22:36.857Z,1.30
2022-11-19T04:25:06.675Z,1.55
2022-11-19T04:27:39.019Z,2.30
2022-11-19T04:30:12.022Z,1.02
2022-11-19T04:32:42.280Z,1.05
2022-11-19T04:35:20.133Z,1.90
2022-11-19T04:37:52.206Z,1.80
2022-11-19T04:40:23.900Z,1.35
2022-11-19T04:42:59.817Z,2.03
2022-11-19T04:45:31.244Z,1.30
2022-11-19T04:48:03.510Z,1.65
2022-11-19T04:50:40.717Z,1.63
2022-11-19T04:53:11.638Z,1.63
2022-11-19T04:55:41.417Z,2.25
2022-11-19T04:58:13.794Z,1.15
2022-11-19T05:00:42.934Z,1.90
2022-11-19T05:03:12.317Z,2.75
2022-11-19T05:05:41.791Z,2.10
2022-11-19T05:08:13.683Z,1.63
2022-11-19T05:10:45.591Z,1.60
2022-11-19T05:13:14.994Z,1.33
2022-11-19T05:15:44.557Z,1.40
2022-11-19T05:18:16.484Z,1.50
2022-11-19T05:20:46.573Z,1.40
2022-11-19T05:23:23.971Z,1.65
2022-11-19T05:25:59.310Z,1.67
2022-11-19T05:28:39.692Z,1.60
2022-11-19T05:31:12.189Z,1.42
2022-11-19T05:33:45.861Z,1.42
2022-11-19T05:36:19.152Z,2.13
2022-11-19T05:38:50.590Z,1.38
2022-11-19T05:41:19.993Z,1.98
2022-11-19T05:43:49.165Z,1.38
2022-11-19T05:46:20.754Z,1.58
2022-11-19T05:48:50.968Z,2.55
2022-11-19T05:51:23.255Z,1.10
2022-11-19T05:53:54.011Z,0.85
2022-11-19T05:56:28.151Z,1.40
2022-11-19T05:59:06.603Z,1.40
2022-11-19T06:01:41.060Z,1.30
2022-11-19T06:04:12.791Z,1.70
2022-11-19T06:06:45.360Z,1.30
2022-11-19T06:09:16.515Z,1.20
2022-11-19T06:11:51.143Z,1.63
2022-11-19T06:14:24.632Z,1.30
2022-11-19T06:16:56.471Z,1.42
2022-11-19T06:19:26.937Z,2.00
2022-11-19T06:21:57.650Z,1.92
2022-11-19T06:24:31.868Z,1.15
2022-11-19T06:27:06.625Z,1.30
2022-11-19T06:29:42.249Z,1.88
2022-11-19T06:32:13.170Z,1.45
2022-11-19T06:34:49.429Z,1.23
2022-11-19T06:37:23.662Z,2.13
2022-11-19T06:39:55.580Z,1.88
2022-11-19T06:42:49.782Z,2.00
2022-11-19T06:45:25.725Z,1.35
2022-11-19T06:47:55.540Z,1.63
2022-11-19T06:50:29.498Z,1.40
2022-11-19T06:52:59.936Z,1.70
2022-11-19T06:55:31.010Z,1.08
2022-11-19T06:58:03.717Z,1.30
2022-11-19T07:00:38.453Z,1.25
2022-11-19T07:03:10.568Z,1.40
2022-11-19T07:05:44.959Z,1.08
2022-11-19T07:08:15.368Z,1.30
2022-11-19T07:10:46.818Z,0.95
2022-11-19T07:13:20.016Z,1.40
2022-11-19T07:15:56.160Z,1.38
2022-11-19T07:18:27.819Z,1.20
2022-11-19T07:21:01.009Z,0.98
2022-11-19T07:23:30.812Z,1.08
2022-11-19T07:26:04.163Z,1.30
2022-11-19T07:28:33.664Z,0.93
2022-11-19T07:31:06.695Z,0.85
2022-11-19T07:33:39.454Z,1.10
2022-11-19T07:36:15.343Z,1.48
2022-11-19T07:38:48.069Z,1.90
2022-11-19T07:41:32.738Z,1.40
2022-11-19T07:44:03.847Z,2.17
2022-11-19T07:46:35.647Z,1.40
2022-11-19T07:49:04.867Z,1.45
2022-11-19T07:51:36.940Z,1.00
2022-11-19T07:54:09.316Z,1.35
2022-11-19T07:56:43.562Z,1.40
2022-11-19T07:59:13.296Z,1.38
2022-11-19T08:01:42.597Z,1.75
2022-11-19T08:04:12.198Z,1.65
2022-11-19T08:06:43.606Z,1.55
2022-11-19T08:09:12.947Z,1.27
2022-11-19T08:11:46.165Z,1.67
2022-11-19T08:14:15.588Z,1.55
2022-11-19T08:17:05.984Z,1.20
2022-11-19T08:19:35.420Z,0.90
2022-11-19T08:22:04.553Z,1.48
2022-11-19T08:24:35.281Z,2.00
2022-11-19T08:27:06.624Z,1.27
2022-11-19T08:29:35.972Z,1.45
2022-11-19T08:32:05.857Z,1.65
2022-11-19T08:34:35.469Z,1.13
2022-11-19T08:37:04.768Z,0.98
2022-11-19T08:39:34.346Z,0.90
2022-11-19T08:42:21.223Z,1.10
2022-11-19T08:44:53.536Z,1.35
2022-11-19T08:47:24.918Z,1.33
2022-11-19T08:49:53.974Z,1.23
2022-11-19T08:52:23.083Z,1.88
2022-11-19T08:54:52.581Z,1.33
2022-11-19T08:57:22.139Z,1.05
2022-11-19T08:59:53.427Z,1.10
2022-11-19T09:02:22.860Z,2.20
2022-11-19T09:04:52.510Z,1.85
2022-11-19T09:07:21.603Z,1.80
2022-11-19T09:09:50.880Z,1.08
2022-11-19T09:12:25.021Z,0.93
2022-11-19T09:14:56.278Z,1.73
2022-11-19T09:17:26.521Z,1.90
2022-11-19T09:19:55.944Z,1.55
2022-11-19T09:22:27.473Z,1.02
2022-11-19T09:24:56.822Z,1.42
2022-11-19T09:27:26.329Z,1.25
2022-11-19T09:29:58.639Z,1.48
2022-11-19T09:32:30.783Z,1.25
2022-11-19T09:34:59.952Z,1.38
2022-11-19T09:37:33.467Z,1.35
2022-11-19T09:40:05.906Z,1.15
2022-11-19T09:42:43.495Z,1.15
2022-11-19T09:45:21.515Z,1.70
2022-11-19T09:48:00.081Z,1.17
2022-11-19T09:50:31.209Z,1.10
2022-11-19T09:53:03.153Z,1.52
2022-11-19T09:55:33.841Z,1.17
2022-11-19T09:58:07.505Z,1.13
2022-11-19T10:00:38.624Z,1.42
2022-11-19T10:03:17.559Z,1.00
2022-11-19T10:05:51.420Z,0.98
2022-11-19T10:08:27.527Z,0.90
2022-11-19T10:11:05.434Z,1.40
2022-11-19T10:13:45.711Z,1.20
2022-11-19T10:16:23.378Z,1.00
2022-11-19T10:18:58.895Z,1.65
2022-11-19T10:21:30.509Z,1.10
2022-11-19T10:24:03.640Z,1.20
2022-11-19T10:26:37.769Z,1.52
2022-11-19T10:29:14.719Z,1.50
2022-11-19T10:31:47.826Z,1.35
2022-11-19T10:34:19.789Z,1.55
2022-11-19T10:36:50.235Z,1.95
2022-11-19T10:39:22.274Z,1.55
2022-11-19T10:44:38.206Z,1.42
2022-11-19T10:47:10.826Z,2.40
2022-11-19T10:49:41.231Z,1.38
2022-11-19T10:52:13.855Z,0.90
2022-11-19T10:54:44.476Z,1.10
2022-11-19T10:57:17.030Z,1.27
2022-11-19T10:59:53.371Z,1.23
2022-11-19T11:02:28.196Z,1.25
2022-11-19T11:05:02.756Z,1.00
2022-11-19T11:07:50.612Z,1.73
2022-11-19T11:10:27.295Z,1.30
2022-11-19T11:13:15.753Z,1.55
2022-11-19T11:15:49.239Z,1.13
2022-11-19T11:18:20.726Z,1.40
2022-11-19T11:20:51.381Z,1.73
2022-11-19T11:23:21.365Z,1.67
2022-11-19T11:25:55.851Z,1.48
2022-11-19T11:28:25.509Z,2.20
2022-11-19T11:30:56.053Z,1.52
2022-11-19T11:33:34.501Z,2.15
2022-11-19T11:36:05.398Z,1.25
2022-11-19T11:38:35.885Z,1.55
2022-11-19T11:44:04.200Z,1.48
2022-11-19T11:46:44.895Z,1.38
2022-11-19T11:49:23.634Z,1.60
2022-11-19T11:51:58.156Z,1.27
2022-11-19T11:54:27.308Z,1.35
2022-11-19T11:57:09.887Z,1.30
2022-11-19T11:59:44.979Z,1.17
2022-11-19T12:02:23.750Z,1.27
2022-11-19T12:04:54.893Z,1.65
2022-11-19T12:07:38.032Z,1.15
2022-11-19T12:10:15.969Z,1.95
2022-11-19T12:12:53.667Z,2.15
2022-11-19T12:15:29.748Z,1.85
2022-11-19T12:18:02.030Z,1.80
2022-11-19T12:20:37.806Z,1.13
2022-11-19T12:23:19.256Z,1.27
2022-11-19T12:26:00.781Z,1.67
2022-11-19T12:28:38.181Z,1.58
2022-11-19T12:31:13.613Z,2.65
2022-11-19T12:33:55.525Z,1.30
2022-11-19T12:36:32.200Z,1.10
2022-11-19T12:39:04.490Z,1.85
2022-11-19T12:41:41.267Z,2.03
2022-11-19T12:44:14.653Z,1.77
2022-11-19T12:46:50.532Z,1.63
2022-11-19T12:49:42.180Z,1.73
2022-11-19T12:52:22.480Z,2.20
2022-11-19T12:54:58.690Z,2.60
2022-11-19T12:57:40.041Z,2.17
2022-11-19T13:00:19.381Z,1.40
2022-11-19T13:02:54.903Z,2.13
2022-11-19T13:05:27.081Z,1.38
2022-11-19T13:08:00.475Z,3.15
2022-11-19T13:10:35.392Z,2.08
2022-11-19T13:13:12.049Z,1.65
2022-11-19T13:15:45.325Z,1.33
2022-11-19T13:18:17.272Z,1.48
2022-11-19T13:23:28.044Z,1.80
2022-11-19T13:26:01.499Z,2.58
2022-11-19T13:28:34.684Z,1.52
2022-11-19T13:31:21.390Z,1.50
2022-11-19T13:33:53.130Z,2.15
2022-11-19T13:36:28.034Z,2.55
2022-11-19T13:39:01.092Z,1.33
2022-11-19T13:41:33.797Z,1.60
2022-11-19T13:44:23.549Z,2.92
2022-11-19T13:46:57.394Z,1.55
2022-11-19T13:49:31.714Z,2.75
2022-11-19T13:52:05.794Z,2.40
2022-11-19T13:54:39.783Z,1.52
2022-11-19T13:57:10.882Z,1.45
2022-11-19T13:59:44.667Z,1.30
2022-11-19T14:02:21.911Z,1.80
2022-11-19T14:05:09.654Z,1.40
2022-11-19T14:07:54.022Z,1.67
2022-11-19T14:10:28.501Z,1.73
2022-11-19T14:13:17.492Z,2.35
2022-11-19T14:16:21.404Z,1.50
2022-11-19T14:19:24.407Z,2.58
2022-11-19T14:22:12.610Z,2.67
2022-11-19T14:25:14.901Z,2.25
2022-11-19T14:27:49.242Z,1.85
2022-11-19T14:30:20.538Z,1.23
2022-11-19T14:32:50.569Z,1.30
2022-11-19T14:35:44.191Z,2.15
2022-11-19T14:38:34.444Z,1.77
2022-11-19T14:41:22.068Z,1.38
2022-11-19T14:44:11.574Z,1.40
2022-11-19T14:46:42.483Z,1.27
2022-11-19T14:49:33.096Z,1.37
2022-11-19T14:52:03.215Z,1.00
2022-11-19T14:54:39.480Z,1.33
2022-11-19T14:57:17.382Z,1.10
2022-11-19T14:59:50.852Z,1.27
2022-11-19T15:02:28.487Z,1.67
2022-11-19T15:05:01.061Z,1.70
2022-11-19T15:07:41.543Z,1.52
2022-11-19T15:10:31.910Z,1.30
2022-11-19T15:13:18.887Z,2.15
2022-11-19T15:15:50.946Z,2.47
2022-11-19T15:18:41.369Z,2.10
2022-11-19T15:21:19.387Z,2.20
2022-11-19T15:24:07.031Z,1.92
2022-11-19T15:26:38.816Z,1.73
2022-11-19T15:31:50.150Z,1.63
2022-11-19T15:34:48.688Z,2.50
2022-11-19T15:37:22.134Z,1.65
2022-11-19T15:40:02.351Z,2.05
2022-11-19T15:42:34.800Z,2.35
2022-11-19T15:45:06.662Z,1.65
2022-11-19T15:47:41.049Z,2.15
2022-11-19T15:50:17.133Z,3.70
2022-11-19T15:52:58.940Z,2.30
2022-11-19T15:55:31.051Z,2.10
2022-11-19T15:58:05.032Z,1.88
2022-11-19T16:00:45.272Z,2.78
2022-11-19T16:03:17.093Z,2.65
2022-11-19T16:05:50.681Z,2.00
2022-11-19T16:08:24.432Z,2.88
2022-11-19T16:11:19.955Z,2.40
2022-11-19T16:14:11.042Z,3.08
2022-11-19T16:16:58.302Z,2.90
2022-11-19T16:19:30.431Z,2.80
2022-11-19T16:22:06.149Z,2.47
2022-11-19T16:24:59.653Z,3.08
2022-11-19T16:27:30.850Z,2.15
2022-11-19T16:30:02.963Z,2.10
2022-11-19T16:32:32.519Z,2.42
2022-11-19T16:35:13.642Z,2.67
2022-11-19T16:37:42.947Z,4.05
2022-11-19T16:40:18.993Z,5.32
2022-11-19T16:42:51.672Z,4.72
2022-11-19T16:45:23.329Z,6.35
2022-11-19T16:47:54.148Z,5.55
2022-11-19T16:50:41.133Z,5.57
2022-11-19T16:53:37.431Z,4.15
2022-11-19T16:56:15.577Z,4.75
2022-11-19T16:58:48.165Z,4.43
2022-11-19T17:01:23.434Z,3.90
2022-11-19T17:03:58.908Z,3.42
2022-11-19T17:06:31.794Z,3.22
2022-11-19T17:09:05.366Z,3.25
2022-11-19T17:12:00.377Z,4.97
2022-11-19T17:14:45.123Z,6.03
2022-11-19T17:17:29.408Z,5.55
2022-11-19T17:19:59.412Z,6.35
2022-11-19T17:22:32.178Z,7.35
2022-11-19T17:25:04.183Z,6.68
2022-11-19T17:27:36.851Z,4.97
2022-11-19T17:30:10.129Z,4.82
2022-11-19T17:32:45.957Z,6.47
2022-11-19T17:35:30.840Z,5.93
2022-11-19T17:38:02.708Z,4.93
2022-11-19T17:40:33.342Z,4.90
2022-11-19T17:43:20.397Z,4.82
2022-11-19T17:45:50.974Z,5.15
2022-11-19T17:48:26.500Z,5.88
2022-11-19T17:51:01.345Z,4.18
2022-11-19T17:53:35.963Z,4.47
2022-11-19T17:56:05.805Z,3.80
2022-11-19T17:58:36.521Z,4.47
2022-11-19T18:01:15.391Z,4.10
2022-11-19T18:03:48.646Z,5.15
2022-11-19T18:06:18.674Z,4.10
2022-11-19T18:08:49.313Z,4.55
2022-11-19T18:11:29.303Z,4.32
2022-11-19T18:14:11.953Z,3.90
2022-11-19T18:16:43.759Z,4.15
2022-11-19T18:19:14.816Z,4.50
2022-11-19T18:21:44.165Z,4.97
2022-11-19T18:24:14.967Z,5.13
2022-11-19T18:26:44.310Z,4.93
2022-11-19T18:29:13.835Z,5.68
2022-11-19T18:31:47.592Z,6.85
2022-11-19T18:34:20.190Z,5.88
2022-11-19T18:36:51.403Z,5.78
2022-11-19T18:39:26.992Z,5.63
2022-11-19T18:41:59.042Z,6.13
2022-11-19T18:44:33.873Z,5.93
2022-11-19T18:47:09.978Z,4.30
2022-11-19T18:49:39.479Z,6.82
2022-11-19T18:52:16.714Z,4.95
2022-11-19T18:54:47.845Z,4.47
2022-11-19T18:57:20.207Z,5.35
2022-11-19T18:59:49.787Z,5.35
2022-11-19T19:02:20.144Z,6.05
2022-11-19T19:04:52.103Z,5.70
2022-11-19T19:07:30.767Z,7.15
2022-11-19T19:46:41.020Z,4.90
2022-11-19T19:49:10.509Z,5.10
2022-11-19T19:51:43.279Z,4.95
2022-11-19T19:54:15.673Z,4.15
2022-11-19T19:56:45.093Z,6.05
2022-11-19T19:59:15.321Z,4.78
2022-11-19T20:01:53.140Z,3.75
2022-11-19T20:04:25.413Z,3.60
2022-11-19T20:07:05.568Z,7.25
2022-11-19T20:09:36.139Z,5.13
2022-11-19T20:12:18.975Z,4.78
2022-11-19T20:14:52.440Z,5.60
2022-11-19T20:17:25.691Z,4.57
2022-11-19T20:19:55.169Z,4.78
2022-11-19T20:22:25.029Z,4.38
2022-11-19T20:24:55.844Z,5.18
2022-11-19T20:27:25.026Z,5.07
2022-11-19T20:29:55.094Z,5.10
2022-11-19T20:32:35.371Z,4.95
2022-11-19T20:35:04.859Z,5.18
2022-11-19T20:37:34.426Z,5.85
2022-11-19T20:40:03.798Z,4.50
2022-11-19T20:42:50.599Z,5.70
2022-11-19T20:45:24.692Z,5.07
2022-11-19T20:47:55.838Z,5.18
2022-11-19T20:50:26.102Z,5.22
2022-11-19T20:52:55.568Z,5.97
2022-11-19T20:55:26.837Z,6.18
2022-11-19T20:57:57.854Z,5.25
2022-11-19T21:00:27.171Z,6.40
2022-11-19T21:02:59.534Z,4.97
2022-11-19T21:05:29.143Z,5.80
2022-11-19T21:08:04.813Z,5.85
2022-11-19T21:10:39.956Z,5.60
2022-11-19T21:13:09.659Z,6.57
2022-11-19T21:15:39.975Z,6.60
2022-11-19T21:18:14.413Z,6.65
2022-11-19T21:20:46.867Z,8.02
2022-11-19T21:23:16.265Z,10.82
2022-11-19T21:25:46.139Z,14.77
2022-11-19T21:28:19.194Z,14.82
2022-11-19T21:30:53.075Z,12.48
2022-11-19T21:33:26.479Z,11.52
2022-11-19T21:36:02.998Z,12.88
2022-11-19T21:38:36.065Z,10.65
2022-11-19T21:41:08.849Z,8.63
2022-11-19T21:43:39.259Z,7.93
2022-11-19T21:46:17.062Z,8.80
2022-11-19T22:26:29.991Z,9.30
2022-11-19T22:28:59.703Z,7.03
2022-11-19T22:31:35.453Z,7.18
2022-11-19T22:34:11.085Z,7.30
2022-11-19T22:36:40.266Z,6.65
2022-11-19T22:39:09.753Z,12.13
2022-11-19T22:41:40.193Z,9.75
2022-11-19T22:44:16.615Z,8.65
2022-11-19T22:46:50.080Z,7.93
2022-11-19T22:49:20.230Z,7.82
2022-11-19T22:51:51.024Z,6.85
2022-11-19T22:54:21.961Z,8.45
2022-11-19T22:56:55.704Z,7.53
2022-11-19T22:59:34.765Z,6.25
2022-11-19T23:02:04.767Z,6.82
2022-11-19T23:04:34.383Z,6.80
2022-11-19T23:07:04.060Z,7.43
2022-11-19T23:09:33.478Z,6.60
2022-11-19T23:12:25.458Z,7.57
2022-11-19T23:15:02.375Z,6.45
2022-11-19T23:17:34.528Z,7.95
2022-11-19T23:20:06.746Z,6.75
2022-11-19T23:22:36.527Z,5.70
2022-11-19T23:25:12.579Z,6.68
2022-11-19T23:27:45.288Z,4.88
2022-11-19T23:30:15.193Z,5.32
2022-11-19T23:32:45.600Z,6.07
2022-11-19T23:35:14.919Z,5.07
2022-11-19T23:37:44.207Z,5.82
2022-11-19T23:40:17.122Z,5.85
2022-11-19T23:42:52.124Z,5.82
2022-11-19T23:45:22.708Z,4.88
2022-11-19T23:47:52.393Z,4.90
2022-11-19T23:50:22.503Z,4.90
2022-11-19T23:52:51.893Z,4.75
2022-11-19T23:55:21.326Z,4.20
2022-11-19T23:57:52.474Z,4.32
